EDDC/DRS METAR and TAF weather

Enter ICAO airport designator
Station Type Date Time Source
EDDC METAR 2022/01/29 01:20 UTC NOAA

EDDC 290120Z 22007KT CAVOK 01/M02 Q1027


Station Type Date Time Source
EDDC Decoded METAR 2022/01/29 01:20 UTC NOAA

Dresden-Klotzsche, Germany (EDDC) 51-08N 013-45E 232M
Jan 28, 2022 - 08:20 PM EST / 2022.01.29 0120 UTC
Wind: from the SW (220 degrees) at 8 MPH (7 KT):0
Visibility: greater than 7 mile(s):0
Temperature: 33 F (1 C)
Windchill: 26 F (-3 C):1
Dew Point: 28 F (-2 C)
Relative Humidity: 80%
Pressure (altimeter): 30.33 in. Hg (1027 hPa)
ob: EDDC 290120Z 22007KT CAVOK 01/M02 Q1027
cycle: 1

Station Type Date Time Source
EDDC TAF 2022/01/28 18:46 UTC NOAA

TAF EDDC 281700Z 2818/2918 23010KT 9999 SCT014 BKN035 PROB40
TEMPO 2907/2911 RA
BECMG 2908/2910 24015G30KT
TEMPO 2911/2914 25020G35KT 4000 RA BKN014
BECMG 2914/2916 25020G35KT

Example: see airport list